Uxbridge, Canada
Current Conditions -  °F | °C
As of 1:00 PM on Thursday 29 Jan 2015 (Local Time) from CYKZ Reporting Station
Light Snow Light Snow  
Wind Chill: 21°   Ceiling: 700
Heat Index: 28°   Visibility: 0.75mi
Dew Point: 25°   Wind: 7mph
Humidity: 86%   Direction: 150°SSE
Pressure: 29.78"   Gusts: NA
Location:  44.1°N, 79.12°W
Report Text: CYKZ 291800Z 15006KT 3/4SM -SN VV007 M02/M04 A2978 RMK SN8 SNWET PRESFR SLP094
Loading
Personal Weather Stations






























Interactive Weather Map New forecast layout! Learn more

10-Day Weather Forecast

Advertisements
Track Severe Weather on mobile